Historique des mesures à Cassis (13260), France
Quotidien Résumé Janvier 15, 2018 Unités:  US    Métrique   Métrique/US
« Précédent (Jour)
Suivant (Jour) »
Quotidien Hebdomadaire Mensuel Annuel Période au choix
  Maximum: Minimum: Moyenne:
Température: TemperatureC °F 9.6 °F 10.9 °F
Point de rosée: DewpointC °F 5.0 °F 6.2 °F
Humidité: Humidity % 67 % 68 %
Vitesse du vent: WindSpeedKMH mph 0.0 mph 0.4 mph
Rafales: WindSpeedGustKMH mph - -
Vent:- - SE
Pression: PressurehPa in 1016.5 in -
Précipitations: 0.0 in    
Historical Graphs
 
 
Mesures pour : Janvier 15, 2018
Heure Temperature Point de rosée Pression Vent Vitesse du vent Rafales Humidité Pluie (par heure) Conditions
TemperatureC °F DewpointC °F PressurehPa in Calm     Humidity % HourlyPrecipMM in SoftwareType W/m2
01:12 10.4 °F 5.4 °F 1017.2 in Calm     71 % 0.0 in open2300-1.11 W/m2
02:12 10.4 °F 5.6 °F 1017.5 in Calm   2.6 mph 72 % 0.0 in open2300-1.11 W/m2
03:12 10.6 °F 5.6 °F 1017.2 in Calm     71 % 0.0 in open2300-1.11 W/m2
04:12 10.3 °F 5.3 °F 1016.8 in Calm     71 % 0.0 in open2300-1.11 W/m2
05:12 9.6 °F 5.0 °F 1017.2 in NW 2.6 mph 2.6 mph 73 % 0.0 in open2300-1.11 W/m2
06:12 9.8 °F 5.2 °F 1017.2 in Calm   5.0 mph 73 % 0.0 in open2300-1.11 W/m2
08:12 10.3 °F 5.5 °F 1017.8 in Calm     72 % 0.0 in open2300-1.11 W/m2
09:12 10.3 °F 5.5 °F 1018.5 in North 2.1 mph 2.1 mph 72 % 0.0 in open2300-1.11 W/m2
10:12 10.7 °F 5.9 °F 1018.8 in Calm     72 % 0.0 in open2300-1.11 W/m2
11:12 11.6 °F 6.6 °F 1019.5 in Calm     71 % 0.0 in open2300-1.11 W/m2
12:12 12.6 °F 7.1 °F 1019.2 in Calm   2.1 mph 69 % 0.0 in open2300-1.11 W/m2
13:12 13.1 °F 7.3 °F 1018.2 in Calm   1.8 mph 68 % 0.0 in open2300-1.11 W/m2
14:12 13.6 °F 8.0 °F 1017.2 in Calm   5.0 mph 69 % 0.0 in open2300-1.11 W/m2
15:12 14.1 °F 8.1 °F 1017.8 in East 1.4 mph 4.7 mph 67 % 0.0 in open2300-1.11 W/m2
16:12 13.6 °F 8.0 °F 1017.5 in SSE 2.1 mph 2.1 mph 69 % 0.0 in open2300-1.11 W/m2
17:12 12.8 °F 7.7 °F 1017.2 in Calm     71 % 0.0 in open2300-1.11 W/m2
19:12 11.9 °F 7.6 °F 1016.8 in Calm     75 % 0.0 in open2300-1.11 W/m2
21:12 11.4 °F 7.3 °F 1017.2 in Calm   6.4 mph 76 % 0.0 in open2300-1.11 W/m2
22:12 11.3 °F 7.2 °F 1016.8 in Calm     76 % 0.0 in open2300-1.11 W/m2
23:12 11.0 °F 6.9 °F 1016.5 in Calm     76 % 0.0 in open2300-1.11 W/m2
Observations météo à CASSIS
WU-History script by Weather Underground - 1 mb